createdAt,value
2023-01-29T00:00:11.138Z,2.70
2023-01-29T00:02:39.153Z,2.27
2023-01-29T00:05:26.009Z,2.33
2023-01-29T00:07:55.617Z,2.83
2023-01-29T00:10:23.879Z,1.80
2023-01-29T00:12:53.219Z,2.83
2023-01-29T00:15:21.507Z,2.57
2023-01-29T00:17:49.532Z,2.90
2023-01-29T00:20:18.403Z,2.80
2023-01-29T00:22:46.703Z,2.97
2023-01-29T00:25:14.707Z,3.10
2023-01-29T00:27:43.799Z,2.67
2023-01-29T00:30:19.353Z,2.53
2023-01-29T00:32:47.838Z,2.63
2023-01-29T00:35:16.075Z,2.53
2023-01-29T00:37:47.022Z,2.27
2023-01-29T00:40:15.804Z,2.37
2023-01-29T00:43:03.445Z,2.83
2023-01-29T00:45:33.083Z,2.53
2023-01-29T00:48:01.220Z,2.40
2023-01-29T00:50:29.458Z,2.63
2023-01-29T00:52:57.560Z,2.43
2023-01-29T00:55:31.119Z,2.40
2023-01-29T00:58:00.003Z,3.00
2023-01-29T01:00:28.020Z,2.50
2023-01-29T01:03:08.515Z,2.50
2023-01-29T01:05:36.944Z,2.80
2023-01-29T01:08:25.801Z,2.80
2023-01-29T01:11:00.159Z,2.80
2023-01-29T01:13:28.242Z,2.83
2023-01-29T01:15:56.761Z,2.73
2023-01-29T01:18:33.511Z,2.67
2023-01-29T01:21:01.507Z,2.30
2023-01-29T01:23:29.536Z,2.47
2023-01-29T01:25:57.670Z,2.43
2023-01-29T01:28:25.795Z,2.50
2023-01-29T01:30:53.860Z,2.47
2023-01-29T01:33:22.137Z,2.37
2023-01-29T01:35:51.538Z,2.50
2023-01-29T01:38:21.769Z,2.40
2023-01-29T01:40:49.775Z,2.30
2023-01-29T01:43:17.736Z,2.40
2023-01-29T01:45:46.854Z,2.70
2023-01-29T01:48:18.262Z,2.70
2023-01-29T01:50:49.985Z,2.67
2023-01-29T01:53:24.900Z,2.00
2023-01-29T01:55:59.921Z,2.40
2023-01-29T01:58:32.767Z,2.33
2023-01-29T02:01:01.629Z,2.73
2023-01-29T02:03:50.098Z,2.30
2023-01-29T02:06:35.913Z,2.07
2023-01-29T02:09:27.606Z,2.47
2023-01-29T02:11:57.173Z,2.50
2023-01-29T02:14:25.377Z,1.87
2023-01-29T02:16:53.406Z,2.57
2023-01-29T02:19:28.808Z,2.37
2023-01-29T02:22:17.114Z,2.37
2023-01-29T02:25:10.114Z,2.37
2023-01-29T02:28:14.966Z,2.67
2023-01-29T02:30:46.419Z,2.27
2023-01-29T02:33:22.236Z,2.37
2023-01-29T02:36:00.122Z,1.90
2023-01-29T02:38:36.435Z,2.53
2023-01-29T02:41:17.132Z,2.40
2023-01-29T02:43:53.932Z,2.13
2023-01-29T02:46:30.159Z,1.63
2023-01-29T02:49:03.435Z,1.83
2023-01-29T02:51:38.972Z,1.80
2023-01-29T02:54:14.389Z,2.53
2023-01-29T02:56:52.911Z,2.33
2023-01-29T02:59:32.265Z,2.00
2023-01-29T03:02:05.528Z,2.70
2023-01-29T03:04:42.481Z,2.37
2023-01-29T03:07:35.804Z,2.00
2023-01-29T03:10:06.805Z,2.40
2023-01-29T03:12:39.035Z,2.00
2023-01-29T03:15:16.637Z,2.00
2023-01-29T03:17:52.007Z,2.00
2023-01-29T03:20:25.392Z,2.27
2023-01-29T03:22:57.787Z,1.90
2023-01-29T03:25:46.507Z,2.20
2023-01-29T03:28:35.745Z,1.97
2023-01-29T03:31:28.921Z,2.60
2023-01-29T03:34:07.788Z,2.23
2023-01-29T03:36:45.184Z,1.80
2023-01-29T03:39:14.738Z,2.00
2023-01-29T03:41:50.044Z,1.90
2023-01-29T03:44:27.929Z,2.30
2023-01-29T03:47:00.457Z,2.20
2023-01-29T03:49:39.225Z,2.30
2023-01-29T03:52:17.566Z,1.90
2023-01-29T03:54:55.654Z,1.90
2023-01-29T03:57:32.462Z,2.20
2023-01-29T04:00:28.143Z,2.37
2023-01-29T04:03:08.141Z,2.40
2023-01-29T04:05:44.827Z,1.90
2023-01-29T04:08:25.455Z,2.20
2023-01-29T04:11:00.605Z,1.50
2023-01-29T04:13:31.465Z,2.40
2023-01-29T04:16:03.551Z,1.93
2023-01-29T04:18:36.685Z,1.83
2023-01-29T04:21:08.507Z,1.90
2023-01-29T04:23:37.623Z,2.03
2023-01-29T04:26:32.992Z,1.70
2023-01-29T04:29:21.634Z,2.40
2023-01-29T04:32:00.617Z,1.80
2023-01-29T04:34:36.294Z,1.80
2023-01-29T04:37:12.606Z,1.63
2023-01-29T04:39:56.215Z,1.77
2023-01-29T04:42:31.065Z,1.80
2023-01-29T04:45:07.668Z,2.60
2023-01-29T04:47:57.451Z,2.30
2023-01-29T04:50:36.306Z,1.60
2023-01-29T04:53:22.608Z,1.93
2023-01-29T04:55:56.867Z,1.70
2023-01-29T04:58:44.501Z,1.80
2023-01-29T05:01:17.176Z,1.70
2023-01-29T05:03:50.589Z,1.97
2023-01-29T05:06:27.915Z,2.37
2023-01-29T05:08:56.918Z,2.00
2023-01-29T05:11:30.979Z,1.70
2023-01-29T05:13:59.701Z,1.97
2023-01-29T05:16:30.713Z,1.87
2023-01-29T05:18:58.687Z,1.87
2023-01-29T05:21:28.694Z,1.97
2023-01-29T05:24:22.149Z,1.93
2023-01-29T05:27:13.396Z,2.07
2023-01-29T05:29:45.964Z,1.53
2023-01-29T05:32:16.980Z,1.70
2023-01-29T05:34:44.892Z,1.70
2023-01-29T05:37:20.759Z,1.47
2023-01-29T05:39:48.732Z,1.50
2023-01-29T05:42:18.925Z,1.90
2023-01-29T05:44:50.321Z,2.03
2023-01-29T05:47:20.349Z,1.70
2023-01-29T05:49:48.266Z,1.50
2023-01-29T05:52:17.559Z,1.33
2023-01-29T05:54:46.428Z,2.37
2023-01-29T05:57:16.260Z,1.50
2023-01-29T05:59:44.244Z,1.73
2023-01-29T06:02:12.256Z,1.50
2023-01-29T06:04:40.289Z,1.93
2023-01-29T06:07:08.198Z,1.90
2023-01-29T06:09:37.483Z,1.50
2023-01-29T06:12:09.049Z,2.30
2023-01-29T06:14:37.013Z,1.63
2023-01-29T06:17:10.047Z,1.40
2023-01-29T06:19:38.110Z,1.50
2023-01-29T06:22:06.378Z,1.87
2023-01-29T06:24:34.345Z,1.60
2023-01-29T06:27:03.786Z,1.80
2023-01-29T06:29:31.855Z,1.93
2023-01-29T06:31:59.968Z,1.70
2023-01-29T06:34:27.942Z,2.13
2023-01-29T06:36:55.850Z,2.20
2023-01-29T06:39:23.756Z,1.67
2023-01-29T06:41:51.897Z,1.67
2023-01-29T06:44:21.389Z,1.93
2023-01-29T06:46:53.052Z,1.70
2023-01-29T06:49:21.145Z,1.70
2023-01-29T06:51:49.049Z,1.97
2023-01-29T06:54:17.158Z,1.90
2023-01-29T06:56:45.106Z,1.70
2023-01-29T06:59:13.353Z,1.90
2023-01-29T07:01:44.247Z,1.43
2023-01-29T07:04:12.519Z,1.70
2023-01-29T07:06:40.556Z,1.70
2023-01-29T07:09:08.510Z,1.80
2023-01-29T07:11:37.873Z,2.00
2023-01-29T07:14:06.246Z,2.27
2023-01-29T07:16:34.400Z,1.47
2023-01-29T07:19:03.808Z,1.60
2023-01-29T07:21:35.982Z,1.50
2023-01-29T07:24:12.286Z,1.57
2023-01-29T07:26:40.342Z,1.73
2023-01-29T07:29:08.912Z,1.57
2023-01-29T07:31:37.792Z,1.67
2023-01-29T07:34:07.143Z,1.60
2023-01-29T07:36:38.075Z,1.67
2023-01-29T07:39:06.000Z,1.70
2023-01-29T07:41:33.891Z,1.67
2023-01-29T07:44:01.781Z,1.63
2023-01-29T07:46:29.778Z,1.43
2023-01-29T07:48:59.569Z,1.63
2023-01-29T07:51:35.282Z,2.03
2023-01-29T07:54:03.580Z,1.80
2023-01-29T07:56:31.622Z,2.00
2023-01-29T07:58:59.628Z,1.90
2023-01-29T08:01:27.687Z,2.13
2023-01-29T08:03:55.611Z,1.73
2023-01-29T08:06:23.575Z,1.57
2023-01-29T08:08:59.721Z,1.70
2023-01-29T08:11:33.121Z,1.67
2023-01-29T08:14:01.353Z,1.80
2023-01-29T08:16:29.618Z,2.07
2023-01-29T08:18:57.707Z,1.67
2023-01-29T08:21:25.716Z,1.50
2023-01-29T08:23:55.084Z,2.20
2023-01-29T08:26:23.208Z,1.97
2023-01-29T08:28:51.172Z,1.50
2023-01-29T08:31:20.983Z,1.80
2023-01-29T08:33:49.312Z,1.70
2023-01-29T08:39:03.145Z,1.67
2023-01-29T08:41:31.197Z,2.30
2023-01-29T08:44:05.922Z,1.80
2023-01-29T08:46:36.985Z,1.90
2023-01-29T08:49:07.827Z,1.90
2023-01-29T08:51:35.871Z,2.23
2023-01-29T08:54:05.407Z,1.70
2023-01-29T08:56:33.406Z,1.93
2023-01-29T08:59:06.765Z,1.63
2023-01-29T09:01:34.764Z,1.70
2023-01-29T09:04:17.473Z,1.77
2023-01-29T09:06:45.373Z,1.70
2023-01-29T09:09:14.830Z,2.40
2023-01-29T09:11:42.739Z,2.40
2023-01-29T09:14:12.356Z,2.30
2023-01-29T09:16:40.288Z,1.90
2023-01-29T09:19:08.273Z,2.20
2023-01-29T09:21:36.226Z,1.90
2023-01-29T09:24:04.287Z,2.23
2023-01-29T09:26:33.583Z,2.13
2023-01-29T09:29:01.516Z,2.33
2023-01-29T09:31:29.534Z,2.27
2023-01-29T09:33:57.580Z,2.00
2023-01-29T09:36:25.515Z,1.80
2023-01-29T09:38:53.505Z,2.20
2023-01-29T09:41:33.576Z,2.20
2023-01-29T09:44:05.686Z,2.27
2023-01-29T09:46:40.596Z,2.07
2023-01-29T09:49:15.094Z,1.83
2023-01-29T09:51:47.618Z,2.50
2023-01-29T09:54:22.834Z,2.20
2023-01-29T09:56:53.840Z,1.83
2023-01-29T09:59:24.748Z,2.47
2023-01-29T10:02:01.686Z,1.90
2023-01-29T10:04:53.635Z,2.43
2023-01-29T10:07:47.400Z,2.20
2023-01-29T10:10:25.458Z,2.07
2023-01-29T10:13:02.681Z,2.00
2023-01-29T10:15:50.811Z,2.47
2023-01-29T10:18:38.912Z,2.40
2023-01-29T10:21:20.641Z,2.50
2023-01-29T10:23:51.913Z,2.60
2023-01-29T10:26:24.704Z,1.90
2023-01-29T10:28:56.314Z,2.30
2023-01-29T10:31:32.645Z,2.33
2023-01-29T10:34:04.671Z,1.67
2023-01-29T10:36:39.705Z,2.63
2023-01-29T10:39:16.856Z,2.40
2023-01-29T10:41:56.386Z,2.47
2023-01-29T10:44:34.008Z,2.30
2023-01-29T10:47:22.246Z,2.50
2023-01-29T10:50:14.863Z,2.60
2023-01-29T10:52:57.218Z,2.47
2023-01-29T10:55:39.257Z,2.50
2023-01-29T10:58:16.330Z,2.40
2023-01-29T11:00:44.346Z,2.60
2023-01-29T11:03:27.605Z,2.83
2023-01-29T11:06:02.894Z,3.10
2023-01-29T11:08:35.815Z,2.67
2023-01-29T11:11:10.300Z,3.20
2023-01-29T11:13:43.288Z,2.57
2023-01-29T11:16:11.594Z,3.00
2023-01-29T11:18:56.684Z,3.43
2023-01-29T11:21:26.589Z,3.10
2023-01-29T11:24:08.583Z,2.40
2023-01-29T11:26:40.533Z,2.83
2023-01-29T11:29:34.754Z,2.60
2023-01-29T11:32:06.554Z,2.80
2023-01-29T11:34:35.865Z,3.10
2023-01-29T11:37:05.682Z,3.30
2023-01-29T11:39:34.044Z,2.63
2023-01-29T11:42:03.774Z,2.87
2023-01-29T11:44:47.650Z,3.40
2023-01-29T11:47:21.026Z,2.87
2023-01-29T11:49:53.603Z,2.97
2023-01-29T11:52:24.909Z,2.70
2023-01-29T11:54:58.441Z,3.17
2023-01-29T11:57:30.587Z,2.63
2023-01-29T12:00:01.566Z,2.20
2023-01-29T12:02:37.067Z,2.57
2023-01-29T12:05:16.556Z,2.90
2023-01-29T12:07:46.001Z,2.90
2023-01-29T12:10:30.976Z,3.50
2023-01-29T12:13:06.126Z,2.97
2023-01-29T12:15:34.591Z,3.13
2023-01-29T12:18:13.241Z,3.07
2023-01-29T12:20:47.600Z,3.10
2023-01-29T12:23:28.314Z,3.30
2023-01-29T12:26:02.179Z,2.57
2023-01-29T12:28:49.836Z,3.10
2023-01-29T12:31:27.371Z,3.23
2023-01-29T12:34:02.619Z,2.80
2023-01-29T12:36:35.970Z,3.10
2023-01-29T12:39:04.072Z,2.93
2023-01-29T12:41:40.406Z,3.47
2023-01-29T12:44:15.428Z,2.70
2023-01-29T12:46:50.409Z,3.10
2023-01-29T12:49:24.303Z,2.63
2023-01-29T12:51:59.089Z,3.23
2023-01-29T12:54:36.091Z,2.57
2023-01-29T12:57:09.618Z,3.03
2023-01-29T12:59:44.305Z,2.70
2023-01-29T13:02:25.355Z,2.80
2023-01-29T13:04:59.090Z,2.93
2023-01-29T13:07:33.002Z,2.77
2023-01-29T13:10:09.393Z,3.57
2023-01-29T13:12:40.176Z,2.97
2023-01-29T13:15:18.515Z,3.17
2023-01-29T13:17:51.980Z,2.80
2023-01-29T13:20:25.231Z,3.30
2023-01-29T13:22:58.164Z,3.00
2023-01-29T13:25:26.194Z,2.50
2023-01-29T13:27:55.263Z,3.10
2023-01-29T13:30:31.111Z,2.73
2023-01-29T13:33:10.299Z,3.20
2023-01-29T13:35:41.468Z,3.30
2023-01-29T13:38:25.938Z,3.37
2023-01-29T13:40:57.190Z,2.83
2023-01-29T13:43:25.496Z,3.30
2023-01-29T13:45:54.934Z,3.27
2023-01-29T13:48:26.456Z,2.83
2023-01-29T13:50:56.800Z,2.90
2023-01-29T13:53:28.375Z,2.73
2023-01-29T13:55:56.657Z,3.60
2023-01-29T13:58:54.977Z,2.40
2023-01-29T14:01:56.332Z,2.70
2023-01-29T14:04:28.292Z,3.07
2023-01-29T14:06:57.084Z,2.90
2023-01-29T14:10:02.457Z,3.00
2023-01-29T14:12:39.131Z,3.07
2023-01-29T14:15:21.742Z,2.90
2023-01-29T14:18:25.771Z,3.07
2023-01-29T14:21:04.996Z,3.07
2023-01-29T14:23:44.328Z,2.83
2023-01-29T14:26:29.726Z,3.23
2023-01-29T14:29:04.365Z,3.20
2023-01-29T14:31:43.997Z,3.03
2023-01-29T14:34:25.124Z,3.17
2023-01-29T14:36:56.654Z,3.00
2023-01-29T14:39:37.790Z,3.10
2023-01-29T14:42:18.573Z,3.50
2023-01-29T14:45:01.593Z,2.80
2023-01-29T14:47:59.575Z,2.90
2023-01-29T14:50:50.592Z,3.23
2023-01-29T14:53:25.409Z,2.60
2023-01-29T14:55:57.648Z,2.57
2023-01-29T14:58:35.703Z,2.97
2023-01-29T15:01:06.562Z,2.50
2023-01-29T15:03:42.328Z,2.90
2023-01-29T15:06:15.640Z,2.80
2023-01-29T15:08:50.634Z,2.53
2023-01-29T15:11:37.624Z,2.60
2023-01-29T15:14:16.668Z,2.83
2023-01-29T15:16:52.971Z,2.70
2023-01-29T15:19:26.650Z,2.90
2023-01-29T15:22:09.119Z,2.07
2023-01-29T15:24:37.502Z,3.00
2023-01-29T15:27:08.142Z,2.70
2023-01-29T15:29:42.787Z,3.10
2023-01-29T15:32:16.544Z,2.50
2023-01-29T15:34:45.139Z,2.60
2023-01-29T15:37:31.616Z,2.90
2023-01-29T15:40:01.023Z,2.90
2023-01-29T15:42:44.604Z,2.67
2023-01-29T15:45:29.201Z,3.30
2023-01-29T15:48:04.233Z,2.83
2023-01-29T15:50:33.813Z,2.50
2023-01-29T15:53:04.868Z,2.43
2023-01-29T15:55:33.779Z,2.23
2023-01-29T15:58:21.751Z,2.83
2023-01-29T16:00:53.940Z,2.37
2023-01-29T16:03:28.222Z,2.43
2023-01-29T16:06:07.112Z,2.80
2023-01-29T16:08:36.030Z,2.90
2023-01-29T16:11:10.456Z,3.30
2023-01-29T16:13:54.405Z,2.77
2023-01-29T16:16:30.275Z,3.17
2023-01-29T16:19:00.775Z,2.20
2023-01-29T16:21:33.961Z,3.20
2023-01-29T16:24:06.158Z,2.80
2023-01-29T16:26:39.914Z,3.00
2023-01-29T16:29:09.922Z,2.80
2023-01-29T16:31:53.127Z,3.70
2023-01-29T16:34:26.895Z,2.80
2023-01-29T16:36:55.911Z,3.90
2023-01-29T16:39:28.157Z,3.60
2023-01-29T16:42:24.468Z,3.50
2023-01-29T16:44:54.325Z,3.87
2023-01-29T16:47:29.475Z,4.10
2023-01-29T16:50:03.963Z,4.10
2023-01-29T16:52:33.776Z,3.70
2023-01-29T16:55:16.538Z,4.60
2023-01-29T16:57:48.611Z,4.03
2023-01-29T17:00:22.850Z,3.90
2023-01-29T17:02:55.826Z,4.03
2023-01-29T17:05:28.953Z,3.53
2023-01-29T17:07:58.513Z,4.13
2023-01-29T17:10:29.111Z,3.57
2023-01-29T17:12:59.646Z,3.87
2023-01-29T17:15:37.009Z,4.50
2023-01-29T17:18:18.327Z,4.03
2023-01-29T17:20:47.829Z,3.63
2023-01-29T17:23:16.112Z,4.07
2023-01-29T17:25:44.509Z,3.40
2023-01-29T17:28:14.599Z,4.03
2023-01-29T17:30:44.751Z,4.50
2023-01-29T17:33:17.780Z,3.33
2023-01-29T17:35:46.475Z,4.07
2023-01-29T17:38:25.650Z,4.70
2023-01-29T17:40:57.575Z,3.87
2023-01-29T17:43:25.637Z,3.77
2023-01-29T17:45:53.620Z,3.60
2023-01-29T17:48:25.889Z,4.17
2023-01-29T17:50:55.899Z,4.07
2023-01-29T17:53:26.556Z,4.40
2023-01-29T17:55:58.511Z,4.50
2023-01-29T17:58:28.227Z,4.43
2023-01-29T18:00:56.706Z,4.50
2023-01-29T18:03:26.575Z,4.63
2023-01-29T18:05:54.499Z,4.23
2023-01-29T18:08:29.634Z,3.53
2023-01-29T18:10:57.932Z,4.23
2023-01-29T18:13:25.883Z,4.10
2023-01-29T18:15:54.147Z,4.40
2023-01-29T18:18:25.285Z,4.10
2023-01-29T18:20:53.193Z,4.50
2023-01-29T18:23:21.259Z,4.67
2023-01-29T18:25:49.176Z,4.40
2023-01-29T18:28:18.662Z,4.40
2023-01-29T18:30:47.495Z,4.50
2023-01-29T18:33:16.994Z,4.33
2023-01-29T18:35:47.983Z,4.40
2023-01-29T18:38:16.155Z,4.77
2023-01-29T18:40:44.643Z,4.70
2023-01-29T18:43:12.607Z,4.60
2023-01-29T18:45:40.567Z,4.70
2023-01-29T18:48:08.611Z,4.37
2023-01-29T18:50:37.473Z,4.30
2023-01-29T18:53:07.675Z,4.73
2023-01-29T18:55:35.613Z,5.07
2023-01-29T18:58:29.132Z,4.70
2023-01-29T19:00:51.852Z,4.70
2023-01-29T19:03:19.920Z,4.00
2023-01-29T19:05:47.989Z,4.53
2023-01-29T19:08:17.468Z,5.03
2023-01-29T19:10:45.580Z,5.07
2023-01-29T19:13:13.483Z,5.70
2023-01-29T19:15:44.000Z,5.60
2023-01-29T19:18:14.710Z,5.23
2023-01-29T19:20:43.351Z,5.03
2023-01-29T19:23:11.275Z,6.07
2023-01-29T19:25:40.816Z,6.60
2023-01-29T19:28:09.008Z,6.10
2023-01-29T19:30:37.076Z,5.43
2023-01-29T19:33:05.660Z,5.53
2023-01-29T19:35:33.998Z,7.03
2023-01-29T19:38:02.190Z,6.73
2023-01-29T19:40:30.087Z,6.43
2023-01-29T19:42:59.512Z,6.57
2023-01-29T19:45:49.654Z,6.33
2023-01-29T19:48:20.151Z,6.00
2023-01-29T19:50:52.892Z,6.43
2023-01-29T19:53:21.113Z,6.37
2023-01-29T19:55:49.327Z,6.87
2023-01-29T19:58:18.589Z,6.07
2023-01-29T20:00:46.585Z,7.50
2023-01-29T20:03:14.507Z,6.90
2023-01-29T20:05:42.434Z,6.70
2023-01-29T20:08:10.385Z,7.30
2023-01-29T20:10:38.543Z,6.53
2023-01-29T20:13:06.553Z,7.43
2023-01-29T20:15:36.187Z,6.77
2023-01-29T20:18:05.501Z,8.10
2023-01-29T20:20:33.379Z,6.77
2023-01-29T20:23:01.442Z,6.40
2023-01-29T20:25:29.780Z,6.90
2023-01-29T20:27:57.774Z,7.23
2023-01-29T20:30:25.756Z,6.60
2023-01-29T20:32:55.010Z,7.87
2023-01-29T20:35:22.911Z,7.67
2023-01-29T20:37:50.863Z,8.03
2023-01-29T20:40:19.197Z,7.50
2023-01-29T20:42:47.290Z,7.97
2023-01-29T20:45:16.188Z,7.27
2023-01-29T20:47:44.287Z,7.33
2023-01-29T20:50:15.840Z,7.77
2023-01-29T20:52:43.956Z,7.70
2023-01-29T20:55:13.780Z,8.53
2023-01-29T20:57:41.878Z,8.30
2023-01-29T21:00:11.122Z,7.97
2023-01-29T21:02:39.030Z,7.33
2023-01-29T21:05:07.504Z,7.27
2023-01-29T21:07:37.045Z,8.33
2023-01-29T21:10:43.559Z,7.57
2023-01-29T21:13:51.031Z,7.80
2023-01-29T21:17:14.912Z,7.23
2023-01-29T21:20:11.580Z,7.93
2023-01-29T21:22:45.908Z,7.87
2023-01-29T21:25:29.706Z,8.17
2023-01-29T21:28:12.464Z,7.83
2023-01-29T21:30:54.778Z,7.90
2023-01-29T21:33:49.327Z,8.17
2023-01-29T21:36:22.663Z,7.60
2023-01-29T21:39:18.639Z,7.20
2023-01-29T21:45:17.648Z,8.83
2023-01-29T21:47:59.214Z,8.67
2023-01-29T21:50:39.797Z,7.97
2023-01-29T21:53:16.666Z,8.27
2023-01-29T21:55:49.866Z,8.60
2023-01-29T21:58:34.101Z,8.43
2023-01-29T22:01:36.157Z,8.00
2023-01-29T22:04:27.109Z,8.20
2023-01-29T22:07:07.570Z,7.80
2023-01-29T22:09:47.074Z,8.83
2023-01-29T22:12:54.948Z,8.77
2023-01-29T22:15:24.101Z,7.77
2023-01-29T22:18:09.779Z,8.70
2023-01-29T22:20:43.568Z,9.00
2023-01-29T22:23:24.975Z,8.20
2023-01-29T22:26:09.911Z,7.90
2023-01-29T22:28:48.769Z,7.67
2023-01-29T22:31:20.075Z,8.33
2023-01-29T22:34:01.564Z,9.33
2023-01-29T22:36:32.269Z,9.50
2023-01-29T22:39:17.707Z,9.40
2023-01-29T22:41:48.103Z,8.43
2023-01-29T22:44:27.734Z,9.30
2023-01-29T22:47:01.365Z,8.90
2023-01-29T22:49:31.470Z,8.90
2023-01-29T22:52:12.098Z,8.93
2023-01-29T22:54:46.461Z,8.73
2023-01-29T22:57:19.313Z,9.60
2023-01-29T22:59:51.114Z,9.70
2023-01-29T23:02:19.202Z,9.17
2023-01-29T23:04:47.476Z,8.63
2023-01-29T23:07:26.218Z,9.40
2023-01-29T23:09:54.555Z,9.93
2023-01-29T23:12:24.067Z,9.57
2023-01-29T23:14:55.229Z,9.20
2023-01-29T23:17:25.374Z,9.70
2023-01-29T23:19:53.557Z,9.77
2023-01-29T23:22:32.775Z,10.30
2023-01-29T23:25:02.843Z,9.90
2023-01-29T23:27:33.372Z,9.40
2023-01-29T23:30:09.618Z,10.03
2023-01-29T23:32:40.285Z,9.70
2023-01-29T23:35:10.764Z,9.67
2023-01-29T23:37:48.141Z,9.47
2023-01-29T23:40:17.590Z,10.20
2023-01-29T23:42:47.238Z,9.60
2023-01-29T23:45:18.727Z,9.67
2023-01-29T23:47:47.128Z,9.13
2023-01-29T23:50:18.538Z,10.73
2023-01-29T23:52:51.446Z,10.10
2023-01-29T23:55:30.067Z,10.43
2023-01-29T23:58:00.830Z,10.30
